createdAt,value
2022-08-26T00:01:44.254Z,100.00
2022-08-26T00:04:12.662Z,100.00
2022-08-26T00:06:42.710Z,100.00
2022-08-26T00:09:16.364Z,100.00
2022-08-26T00:11:45.475Z,100.00
2022-08-26T00:14:14.039Z,100.00
2022-08-26T00:16:47.466Z,100.00
2022-08-26T00:19:18.324Z,100.00
2022-08-26T00:21:48.659Z,100.00
2022-08-26T00:24:18.220Z,100.00
2022-08-26T00:26:44.993Z,100.00
2022-08-26T00:29:12.472Z,100.00
2022-08-26T00:31:39.937Z,100.00
2022-08-26T00:34:07.363Z,100.00
2022-08-26T00:36:37.002Z,100.00
2022-08-26T00:39:07.106Z,100.00
2022-08-26T00:41:35.166Z,100.00
2022-08-26T00:44:02.032Z,100.00
2022-08-26T00:46:31.740Z,100.00
2022-08-26T00:49:11.976Z,100.00
2022-08-26T00:51:52.624Z,100.00
2022-08-26T00:54:23.283Z,100.00
2022-08-26T00:56:57.942Z,100.00
2022-08-26T00:59:27.596Z,100.00
2022-08-26T01:01:54.436Z,100.00
2022-08-26T01:04:23.277Z,100.00
2022-08-26T01:06:53.086Z,100.00
2022-08-26T01:09:21.887Z,100.00
2022-08-26T01:11:51.612Z,100.00
2022-08-26T01:14:20.282Z,100.00
2022-08-26T01:16:48.572Z,100.00
2022-08-26T01:19:44.719Z,100.00
2022-08-26T01:22:26.590Z,100.00
2022-08-26T01:24:55.881Z,100.00
2022-08-26T01:27:24.490Z,100.00
2022-08-26T01:29:51.883Z,100.00
2022-08-26T01:32:23.342Z,100.00
2022-08-26T01:34:50.664Z,100.00
2022-08-26T01:37:29.289Z,100.00
2022-08-26T01:39:57.318Z,100.00
2022-08-26T01:42:27.433Z,100.00
2022-08-26T01:45:09.931Z,100.00
2022-08-26T01:47:38.224Z,100.00
2022-08-26T01:50:13.251Z,100.00
2022-08-26T01:52:49.984Z,100.00
2022-08-26T01:55:27.646Z,100.00
2022-08-26T01:58:00.680Z,100.00
2022-08-26T02:00:27.804Z,100.00
2022-08-26T02:03:17.267Z,100.00
2022-08-26T02:05:55.539Z,100.00
2022-08-26T02:08:31.205Z,100.00
2022-08-26T02:10:59.955Z,100.00
2022-08-26T02:13:30.198Z,100.00
2022-08-26T02:15:58.763Z,100.00
2022-08-26T02:18:26.814Z,100.00
2022-08-26T02:20:55.485Z,100.00
2022-08-26T02:23:24.021Z,100.00
2022-08-26T02:26:04.993Z,100.00
2022-08-26T02:28:39.434Z,100.00
2022-08-26T02:31:07.961Z,100.00
2022-08-26T02:33:35.010Z,100.00
2022-08-26T02:36:02.724Z,100.00
2022-08-26T02:38:30.276Z,100.00
2022-08-26T02:40:57.414Z,100.00
2022-08-26T02:43:32.725Z,100.00
2022-08-26T02:46:02.144Z,100.00
2022-08-26T02:48:29.892Z,100.00
2022-08-26T02:50:59.222Z,100.00
2022-08-26T02:53:26.046Z,100.00
2022-08-26T02:55:53.164Z,100.00
2022-08-26T02:58:20.754Z,100.00
2022-08-26T03:00:53.414Z,100.00
2022-08-26T03:03:22.485Z,100.00
2022-08-26T03:05:50.234Z,100.00
2022-08-26T03:08:17.181Z,100.00
2022-08-26T03:10:44.346Z,100.00
2022-08-26T03:13:11.082Z,100.00
2022-08-26T03:15:37.882Z,100.00
2022-08-26T03:18:05.413Z,100.00
2022-08-26T03:20:34.329Z,100.00
2022-08-26T03:23:01.497Z,100.00
2022-08-26T03:25:28.720Z,100.00
2022-08-26T03:27:55.498Z,100.00
2022-08-26T03:30:45.214Z,100.00
2022-08-26T03:33:13.275Z,100.00
2022-08-26T03:35:42.984Z,100.00
2022-08-26T03:38:10.440Z,100.00
2022-08-26T03:40:38.889Z,100.00
2022-08-26T03:43:09.739Z,100.00
2022-08-26T03:45:37.543Z,100.00
2022-08-26T03:48:05.639Z,100.00
2022-08-26T03:50:34.308Z,100.00
2022-08-26T03:53:03.850Z,100.00
2022-08-26T03:55:32.602Z,100.00
2022-08-26T03:58:01.026Z,100.00
2022-08-26T04:00:27.860Z,100.00
2022-08-26T04:02:54.897Z,100.00
2022-08-26T04:05:23.282Z,100.00
2022-08-26T04:07:50.528Z,100.00
2022-08-26T04:10:20.409Z,100.00
2022-08-26T04:12:47.535Z,100.00
2022-08-26T04:15:15.978Z,100.00
2022-08-26T04:17:44.658Z,100.00
2022-08-26T04:20:18.164Z,100.00
2022-08-26T04:22:46.299Z,100.00
2022-08-26T04:25:13.695Z,100.00
2022-08-26T04:27:40.771Z,100.00
2022-08-26T04:30:09.089Z,100.00
2022-08-26T04:32:36.708Z,100.00
2022-08-26T04:35:04.612Z,100.00
2022-08-26T04:37:31.771Z,100.00
2022-08-26T04:39:59.793Z,100.00
2022-08-26T04:42:27.129Z,100.00
2022-08-26T04:44:53.857Z,100.00
2022-08-26T04:47:20.633Z,100.00
2022-08-26T04:49:47.834Z,100.00
2022-08-26T04:52:14.693Z,100.00
2022-08-26T04:54:43.012Z,100.00
2022-08-26T04:57:10.606Z,100.00
2022-08-26T04:59:39.458Z,100.00
2022-08-26T05:02:07.095Z,100.00
2022-08-26T05:04:34.600Z,100.00
2022-08-26T05:07:03.020Z,100.00
2022-08-26T05:09:30.514Z,100.00
2022-08-26T05:11:57.661Z,100.00
2022-08-26T05:14:24.405Z,100.00
2022-08-26T05:16:51.470Z,100.00
2022-08-26T05:19:19.477Z,100.00
2022-08-26T05:21:48.519Z,100.00
2022-08-26T05:24:17.098Z,100.00
2022-08-26T05:26:44.973Z,100.00
2022-08-26T05:29:12.178Z,100.00
2022-08-26T05:31:38.993Z,100.00
2022-08-26T05:34:06.136Z,100.00
2022-08-26T05:36:36.139Z,100.00
2022-08-26T05:39:06.316Z,100.00
2022-08-26T05:41:36.516Z,100.00
2022-08-26T05:44:08.527Z,100.00
2022-08-26T05:46:36.820Z,100.00
2022-08-26T05:49:05.760Z,100.00
2022-08-26T05:51:33.997Z,100.00
2022-08-26T05:54:03.964Z,100.00
2022-08-26T05:56:30.837Z,100.00
2022-08-26T05:58:59.627Z,100.00
2022-08-26T06:01:28.531Z,100.00
2022-08-26T06:03:59.717Z,100.00
2022-08-26T06:06:31.338Z,100.00
2022-08-26T06:08:59.560Z,100.00
2022-08-26T06:11:28.414Z,100.00
2022-08-26T06:14:02.700Z,100.00
2022-08-26T06:16:35.040Z,100.00
2022-08-26T06:19:03.041Z,100.00
2022-08-26T06:21:32.925Z,100.00
2022-08-26T06:24:27.394Z,100.00
2022-08-26T06:26:56.983Z,100.00
2022-08-26T06:29:26.016Z,100.00
2022-08-26T06:31:54.642Z,100.00
2022-08-26T06:34:23.463Z,100.00
2022-08-26T06:37:02.429Z,100.00
2022-08-26T06:39:30.731Z,100.00
2022-08-26T06:41:59.094Z,100.00
2022-08-26T06:44:27.319Z,100.00
2022-08-26T06:46:54.244Z,100.00
2022-08-26T06:49:27.187Z,100.00
2022-08-26T06:51:55.510Z,100.00
2022-08-26T06:54:22.449Z,100.00
2022-08-26T06:56:49.635Z,100.00
2022-08-26T06:59:16.615Z,100.00
2022-08-26T07:01:45.326Z,100.00
2022-08-26T07:04:15.682Z,100.00
2022-08-26T07:06:49.127Z,100.00
2022-08-26T07:09:16.974Z,100.00
2022-08-26T07:11:44.719Z,100.00
2022-08-26T07:14:12.559Z,100.00
2022-08-26T07:16:40.457Z,100.00
2022-08-26T07:19:11.001Z,100.00
2022-08-26T07:21:40.385Z,100.00
2022-08-26T07:24:08.379Z,100.00
2022-08-26T07:26:38.193Z,96.69
2022-08-26T07:29:05.088Z,100.00
2022-08-26T07:31:42.257Z,100.00
2022-08-26T07:34:10.985Z,100.00
2022-08-26T07:36:38.196Z,100.00
2022-08-26T07:39:05.955Z,100.00
2022-08-26T07:41:33.493Z,100.00
2022-08-26T07:44:00.862Z,100.00
2022-08-26T07:46:30.194Z,100.00
2022-08-26T07:48:58.092Z,100.00
2022-08-26T07:51:25.369Z,100.00
2022-08-26T07:53:53.408Z,97.14
2022-08-26T07:56:24.306Z,94.52
2022-08-26T07:58:53.106Z,95.14
2022-08-26T08:01:21.240Z,93.40
2022-08-26T08:03:51.646Z,86.13
2022-08-26T08:06:27.265Z,88.26
2022-08-26T08:08:55.589Z,89.56
2022-08-26T08:11:23.949Z,88.26
2022-08-26T08:13:56.031Z,87.96
2022-08-26T08:16:25.101Z,88.63
2022-08-26T08:18:53.568Z,91.81
2022-08-26T08:21:22.156Z,92.66
2022-08-26T08:23:53.513Z,91.92
2022-08-26T08:26:20.679Z,91.09
2022-08-26T08:28:48.200Z,89.96
2022-08-26T08:31:52.532Z,89.03
2022-08-26T08:34:13.111Z,90.56
2022-08-26T08:36:40.035Z,88.41
2022-08-26T08:39:08.623Z,89.98
2022-08-26T08:41:51.345Z,85.96
2022-08-26T08:46:59.920Z,82.47
2022-08-26T08:49:29.255Z,79.22
2022-08-26T08:52:06.995Z,74.75
2022-08-26T08:54:33.997Z,76.38
2022-08-26T08:57:17.599Z,80.55
2022-08-26T08:59:55.304Z,78.99
2022-08-26T09:02:47.882Z,76.11
2022-08-26T09:05:21.906Z,67.87
2022-08-26T09:08:28.502Z,63.10
2022-08-26T09:11:03.686Z,61.29
2022-08-26T09:13:31.829Z,60.88
2022-08-26T09:16:41.196Z,60.37
2022-08-26T09:19:44.124Z,58.89
2022-08-26T09:22:10.975Z,59.31
2022-08-26T09:24:42.025Z,54.84
2022-08-26T09:27:51.828Z,51.92
2022-08-26T09:30:33.215Z,55.46
2022-08-26T09:33:06.648Z,52.92
2022-08-26T09:35:45.697Z,51.86
2022-08-26T09:38:28.192Z,53.26
2022-08-26T09:41:07.165Z,53.27
2022-08-26T09:43:35.643Z,50.67
2022-08-26T09:46:18.742Z,49.25
2022-08-26T09:48:45.557Z,51.90
2022-08-26T09:51:24.164Z,51.51
2022-08-26T09:53:54.553Z,52.15
2022-08-26T09:56:30.092Z,51.14
2022-08-26T09:58:57.885Z,51.88
2022-08-26T10:01:38.096Z,50.05
2022-08-26T10:04:15.252Z,48.40
2022-08-26T10:06:54.649Z,52.22
2022-08-26T10:09:23.549Z,51.45
2022-08-26T10:11:57.215Z,48.74
2022-08-26T10:14:25.064Z,49.26
2022-08-26T10:17:09.320Z,48.54
2022-08-26T10:19:56.220Z,48.24
2022-08-26T10:22:43.480Z,48.28
2022-08-26T10:25:16.144Z,47.11
2022-08-26T10:28:00.630Z,47.84
2022-08-26T10:30:34.629Z,50.27
2022-08-26T10:33:08.764Z,50.10
2022-08-26T10:35:41.333Z,50.73
2022-08-26T10:38:14.634Z,46.85
2022-08-26T10:41:09.724Z,47.86
2022-08-26T10:43:42.967Z,48.61
2022-08-26T10:46:16.481Z,48.85
2022-08-26T10:49:08.306Z,48.68
2022-08-26T10:51:42.316Z,47.45
2022-08-26T10:54:47.809Z,49.25
2022-08-26T10:57:29.171Z,48.72
2022-08-26T11:00:29.617Z,50.64
2022-08-26T11:03:22.076Z,47.33
2022-08-26T11:06:18.537Z,47.22
2022-08-26T11:08:54.070Z,47.57
2022-08-26T11:11:39.589Z,46.56
2022-08-26T11:14:28.460Z,47.90
2022-08-26T11:16:57.735Z,44.87
2022-08-26T11:19:56.830Z,43.69
2022-08-26T11:22:31.754Z,43.81
2022-08-26T11:24:59.066Z,45.39
2022-08-26T11:27:26.126Z,46.04
2022-08-26T11:30:29.283Z,47.07
2022-08-26T11:32:58.904Z,45.31
2022-08-26T11:35:26.436Z,45.45
2022-08-26T11:38:01.444Z,44.58
2022-08-26T11:40:35.494Z,44.81
2022-08-26T11:43:13.285Z,42.58
2022-08-26T11:45:46.816Z,42.38
2022-08-26T11:48:22.135Z,43.16
2022-08-26T11:51:07.246Z,46.82
2022-08-26T11:53:41.176Z,42.98
2022-08-26T11:56:16.926Z,43.30
2022-08-26T11:58:47.017Z,44.27
2022-08-26T12:01:28.926Z,42.70
2022-08-26T12:04:00.089Z,42.70
2022-08-26T12:06:34.037Z,42.97
2022-08-26T12:09:05.617Z,45.07
2022-08-26T12:11:34.058Z,45.71
2022-08-26T12:14:28.742Z,45.07
2022-08-26T12:16:55.599Z,44.64
2022-08-26T12:19:32.942Z,47.11
2022-08-26T12:22:20.937Z,47.05
2022-08-26T12:24:52.531Z,46.00
2022-08-26T12:27:23.047Z,45.58
2022-08-26T12:30:12.261Z,44.08
2022-08-26T12:32:50.978Z,45.43
2022-08-26T12:35:26.063Z,46.17
2022-08-26T12:37:55.372Z,46.43
2022-08-26T12:40:27.966Z,46.55
2022-08-26T12:42:56.595Z,47.68
2022-08-26T12:45:52.900Z,48.30
2022-08-26T12:48:29.241Z,47.35
2022-08-26T12:50:57.342Z,46.92
2022-08-26T12:53:25.699Z,47.26
2022-08-26T12:55:55.423Z,47.05
2022-08-26T12:58:30.136Z,48.50
2022-08-26T13:01:08.882Z,49.76
2022-08-26T13:03:39.007Z,50.68
2022-08-26T13:06:29.766Z,49.25
2022-08-26T13:09:25.550Z,47.45
2022-08-26T13:11:55.130Z,47.81
2022-08-26T13:14:24.840Z,48.27
2022-08-26T13:16:53.145Z,48.48
2022-08-26T13:19:24.397Z,48.33
2022-08-26T13:21:57.674Z,48.28
2022-08-26T13:24:38.571Z,49.05
2022-08-26T13:27:06.993Z,47.21
2022-08-26T13:29:33.911Z,45.76
2022-08-26T13:32:01.105Z,45.16
2022-08-26T13:34:27.985Z,44.14
2022-08-26T13:36:56.495Z,43.34
2022-08-26T13:39:24.263Z,42.56
2022-08-26T13:41:51.583Z,43.39
2022-08-26T13:44:18.657Z,42.92
2022-08-26T13:49:17.361Z,42.01
2022-08-26T13:51:44.141Z,41.62
2022-08-26T13:54:10.922Z,41.92
2022-08-26T13:56:38.000Z,44.93
2022-08-26T13:59:06.565Z,46.20
2022-08-26T14:01:34.780Z,47.31
2022-08-26T14:04:02.845Z,47.25
2022-08-26T14:06:30.092Z,48.37
2022-08-26T14:08:57.204Z,48.30
2022-08-26T14:11:25.174Z,48.12
2022-08-26T14:13:52.500Z,47.69
2022-08-26T14:16:33.568Z,45.93
2022-08-26T14:19:02.193Z,46.32
2022-08-26T14:21:35.300Z,48.02
2022-08-26T14:24:02.617Z,49.40
2022-08-26T14:26:30.143Z,49.96
2022-08-26T14:29:02.680Z,49.81
2022-08-26T14:31:31.931Z,49.42
2022-08-26T14:34:02.775Z,51.33
2022-08-26T14:36:31.491Z,51.41
2022-08-26T14:39:10.104Z,52.10
2022-08-26T14:41:42.961Z,49.68
2022-08-26T14:44:13.845Z,47.90
2022-08-26T14:46:52.593Z,47.09
2022-08-26T14:49:20.128Z,47.45
2022-08-26T14:51:46.917Z,48.07
2022-08-26T14:54:14.815Z,46.18
2022-08-26T14:56:51.813Z,46.69
2022-08-26T14:59:25.595Z,44.90
2022-08-26T15:01:53.607Z,43.94
2022-08-26T15:04:21.258Z,43.88
2022-08-26T15:06:48.152Z,44.50
2022-08-26T15:09:15.864Z,45.56
2022-08-26T15:11:42.991Z,45.61
2022-08-26T15:14:14.694Z,45.93
2022-08-26T15:16:49.919Z,44.77
2022-08-26T15:19:17.683Z,43.98
2022-08-26T15:21:45.764Z,43.43
